Flight Track Log - Related Links

Times and Time Zones

All times are in EDT time to prevent confusion due to time zone crossing. See the SWA2122 flight status page for this flight to view local times or setup timezone preferences in your user account.

Time Position Orientation Groundspeed Altitude Reporting Facility
EDT Latitude Longitude Course Direction KTS MPH feet Rate Location/Type
Sat 05:17:50 PM 39.1667 -76.7500 171° South 213 245 2,500  Level Potomac TRACON
Sat 05:18:56 PM 39.1000 -76.7167 159° South 272 313 5,400 2,550 Climbing Potomac TRACON
Sat 05:19:50 PM 39.0500 -76.6500 134° Southeast 307 353 7,600 2,484 Climbing Potomac TRACON
Sat 05:21:33 PM 38.9189 -76.6722 188° South 297 342 11,900 2,540 Climbing Washington Center
Sat 05:22:33 PM 38.8356 -76.6842 186° South 292 336 14,500 2,237 Climbing Washington Center
Sat 05:23:00 PM 38.5119 -76.7124 171° South  Level FlightAware Approximate
Sat 05:23:31 PM 38.7456 -76.6989 187° South 308 354 16,300  Level Washington Center
Sat 05:24:31 PM 38.6475 -76.7133 187° South 337 388 18,300 1,785 Climbing Washington Center
Sat 05:25:32 PM 38.5453 -76.7253 185° South 361 415 19,900 1,475 Climbing Washington Center
Sat 05:26:33 PM 38.4350 -76.7128 175° South 375 432 21,300 1,537 Climbing Washington Center
Sat 05:27:33 PM 38.3225 -76.6981 174° South 395 455 23,000 1,627 Climbing Washington Center
Sat 05:28:31 PM 38.1975 -76.6750 172° South 412 474 24,500 1,462 Climbing Washington Center
Sat 05:29:32 PM 38.0808 -76.6600 174° South 418 481 25,900 1,131 Climbing Washington Center
Sat 05:30:33 PM 37.9622 -76.6478 175° South 423 487 26,800 992 Climbing Washington Center
Sat 05:31:33 PM 37.8431 -76.6594 184° South 423 487 27,900 1,261 Climbing Washington Center
Sat 05:32:32 PM 37.7219 -76.6761 186° South 428 493 29,300 1,261 Climbing Washington Center
Sat 05:33:32 PM 37.6031 -76.6928 186° South 428 493 30,400 992 Climbing Washington Center
Sat 05:34:33 PM 37.4858 -76.7197 190° South 434 499 31,300 807 Climbing Washington Center
Sat 05:35:31 PM 37.3831 -76.7942 210° Southwest 418 481 32,000 353 Climbing Washington Center
Sat 05:36:32 PM 37.2819 -76.8786 214° Southwest 439 505 32,000  Level Washington Center
Sat 05:37:33 PM 37.1789 -76.9525 210° Southwest 439 505 32,000  Level Washington Center
Sat 05:38:33 PM 37.0800 -77.0317 213° Southwest 434 499 32,000  Level Washington Center
Sat 05:39:34 PM 36.9789 -77.1103 212° Southwest 429 494 32,000  Level Washington Center
Sat 05:40:31 PM 36.8736 -77.1911 212° Southwest 435 501 32,000  Level Washington Center
Sat 05:41:32 PM 36.7703 -77.2694 211° Southwest 440 506 32,000  Level Washington Center
Sat 05:42:33 PM 36.6647 -77.3475 211° Southwest 440 506 32,000  Level Washington Center
Sat 05:43:34 PM 36.5592 -77.4278 211° Southwest 440 506 32,000  Level Washington Center
Sat 05:44:31 PM 36.4536 -77.5081 211° Southwest 446 513 32,000 305 Level Washington Center
Sat 05:45:32 PM 36.3608 -77.5781 211° Southwest 446 513 32,600 645 Climbing Washington Center
Sat 05:46:32 PM 36.2531 -77.6578 211° Southwest 446 513 33,300 694 Climbing Washington Center
Sat 05:47:33 PM 36.1431 -77.7397 211° Southwest 458 527 34,000 350 Climbing Washington Center
Sat 05:48:32 PM 36.0331 -77.8214 211° Southwest 458 527 34,000  Level Washington Center
Sat 05:49:33 PM 35.9231 -77.9006 210° Southwest 463 533 34,000  Level Washington Center
Sat 05:50:31 PM 35.8131 -77.9817 211° Southwest 463 533 34,000  Level Washington Center
Sat 05:51:32 PM 35.7028 -78.0603 210° Southwest 463 533 34,000  Level Washington Center
Sat 05:52:33 PM 35.5928 -78.1411 211° Southwest 463 533 34,000  Level Washington Center
Sat 05:53:33 PM 35.4803 -78.2217 210° Southwest 463 533 34,000  Level Washington Center
Sat 05:54:31 PM 35.3681 -78.3022 210° Southwest 469 540 34,000  Level Washington Center
Sat 05:55:32 PM 35.2556 -78.3847 211° Southwest 469 540 34,000  Level Washington Center
Sat 05:56:33 PM 35.1472 -78.4650 211° Southwest 474 545 34,000  Level Washington Center
Sat 05:57:31 PM 35.0347 -78.5472 211° Southwest 474 545 34,000  Level Washington Center
Sat 05:58:31 PM 34.9242 -78.6267 211° Southwest 474 545 34,000  Level Washington Center
Sat 06:00:17 PM 34.7122 -78.7758 210° Southwest 494 568 34,000  Level Jacksonville Center
Sat 06:01:17 PM 34.6019 -78.8544 210° Southwest 489 563 34,000  Level Jacksonville Center
Sat 06:02:17 PM 34.4900 -78.9378 212° Southwest 482 555 34,000  Level Jacksonville Center
Sat 06:03:17 PM 34.3736 -79.0158 209° Southwest 477 549 34,000  Level Jacksonville Center
Sat 06:04:17 PM 34.2522 -79.0717 201° Southwest 472 543 34,000  Level Jacksonville Center
Sat 06:05:17 PM 34.1264 -79.1247 199° South 472 543 34,000  Level Jacksonville Center
Sat 06:06:17 PM 34.0028 -79.1778 200° South 472 543 34,000  Level Jacksonville Center
Sat 06:07:17 PM 33.8792 -79.2306 200° South 472 543 34,000 -50 Level Jacksonville Center
Sat 06:08:17 PM 33.7556 -79.2831 199° South 472 543 33,900  Descending Jacksonville Center
Sat 06:09:18 PM 33.6525 -79.3272 200° South 467 537 34,000 50 Climbing Jacksonville Center
Sat 06:10:18 PM 33.5289 -79.3794 199° South 467 537 34,000  Level Jacksonville Center
Sat 06:11:17 PM 33.4050 -79.4317 199° South 467 537 34,000  Level Jacksonville Center
Sat 06:12:18 PM 33.2833 -79.4836 200° South 467 537 34,000  Level Jacksonville Center
Sat 06:13:17 PM 33.1636 -79.5353 200° South 467 537 34,000  Level Jacksonville Center
Sat 06:14:17 PM 33.0417 -79.5844 199° South 462 532 34,000  Level Jacksonville Center
Sat 06:15:17 PM 32.9200 -79.6386 200° South 462 532 34,000  Level Jacksonville Center
Sat 06:16:17 PM 32.7983 -79.6897 199° South 462 532 34,000 -50 Level Jacksonville Center
Sat 06:17:18 PM 32.6783 -79.7408 200° South 462 532 33,900  Descending Jacksonville Center
Sat 06:18:17 PM 32.5586 -79.7919 200° South 462 532 34,000 50 Climbing Jacksonville Center
Sat 06:19:18 PM 32.4367 -79.8428 199° South 462 532 34,000  Level Jacksonville Center
Sat 06:20:18 PM 32.3147 -79.8961 200° South 462 532 34,000  Level Jacksonville Center
Sat 06:21:17 PM 32.1928 -79.9467 199° South 462 532 34,000  Level Jacksonville Center
Sat 06:22:17 PM 32.0861 -80.0261 212° Southwest 462 532 34,000  Level Jacksonville Center
Sat 06:23:17 PM 31.9903 -80.1319 223° Southwest 457 526 34,000  Level Jacksonville Center
Sat 06:24:17 PM 31.8967 -80.2375 224° Southwest 467 537 34,000 -300 Level Jacksonville Center
Sat 06:25:17 PM 31.8028 -80.3431 224° Southwest 467 537 33,400 -992 Descending Jacksonville Center
Sat 06:26:18 PM 31.7086 -80.4456 223° Southwest 467 537 32,000 -700 Descending Jacksonville Center
Sat 06:27:17 PM 31.6186 -80.5456 223° Southwest 457 526 32,000  Level Jacksonville Center
Sat 06:28:17 PM 31.5103 -80.6628 223° Southwest 477 549 32,000 -50 Level Jacksonville Center
Sat 06:29:18 PM 31.4139 -80.7697 223° Southwest 483 556 31,900  Descending Jacksonville Center
Sat 06:30:17 PM 31.3194 -80.8767 224° Southwest 476 548 32,000 50 Climbing Jacksonville Center
Sat 06:31:17 PM 31.2164 -80.9639 216° Southwest 471 542 32,000  Level Jacksonville Center
Sat 06:32:17 PM 31.0892 -80.9639 180° South 449 517 32,000  Level Jacksonville Center
Sat 06:33:17 PM 30.9633 -80.9253 165° South 442 509 32,000 -50 Level Jacksonville Center
Sat 06:34:18 PM 30.8333 -80.8989 170° South 457 526 31,900  Descending Jacksonville Center
Sat 06:35:18 PM 30.7119 -80.8703 169° South 457 526 32,000 50 Climbing Jacksonville Center
Sat 06:36:17 PM 30.5881 -80.8342 166° South 457 526 32,000  Level Jacksonville Center
Sat 06:37:17 PM 30.4642 -80.7936 164° South 457 526 32,000  Level Jacksonville Center
Sat 06:38:17 PM 30.3425 -80.7528 164° South 457 526 32,000  Level Jacksonville Center
Sat 06:39:17 PM 30.2250 -80.7147 164° South 457 526 32,000  Level Jacksonville Center
Sat 06:40:17 PM 30.1053 -80.6742 164° South 457 526 32,000  Level Jacksonville Center
Sat 06:41:18 PM 29.9833 -80.6336 164° South 457 526 32,000  Level Jacksonville Center
Sat 06:42:17 PM 29.8597 -80.5958 165° South 457 526 32,000 -34 Level Jacksonville Center
Sat 06:44:14 PM 29.6411 -80.5225 164° South 462 532 31,900  Descending Miami Center
Sat 06:45:14 PM 29.5325 -80.4497 150° Southeast 457 526 32,000 50 Climbing Miami Center
Sat 06:46:14 PM 29.4258 -80.3794 150° Southeast 446 513 32,000  Level Miami Center
Sat 06:47:14 PM 29.3192 -80.3047 149° Southeast 441 507 32,000  Level Miami Center
Sat 06:48:14 PM 29.2144 -80.2325 149° Southeast 446 513 32,000  Level Miami Center
Sat 06:49:14 PM 29.1078 -80.1603 149° Southeast 446 513 32,000  Level Miami Center
Sat 06:50:14 PM 29.0031 -80.0861 148° Southeast 446 513 32,000  Level Miami Center
Sat 06:51:14 PM 28.8922 -80.0094 149° Southeast 446 513 32,000  Level Miami Center
Sat 06:52:14 PM 28.7808 -79.9494 155° Southeast 446 513 32,000  Level Miami Center
Sat 06:53:14 PM 28.6611 -79.8822 154° Southeast 458 527 32,000  Level Miami Center
Sat 06:54:14 PM 28.5478 -79.8200 154° Southeast 463 533 32,000  Level Miami Center
Sat 06:55:14 PM 28.4194 -79.7647 159° South 457 526 32,000  Level Miami Center
Sat 06:56:14 PM 28.2942 -79.7614 179° South 445 512 32,000  Level Miami Center
Sat 06:57:14 PM 28.1689 -79.7631 181° South 445 512 32,000  Level Miami Center
Sat 06:58:14 PM 28.0417 -79.7619 180° South 450 518 32,000  Level Miami Center
Sat 06:59:14 PM 27.9167 -79.7542 177° South 450 518 32,000  Level Miami Center
Sat 07:00:14 PM 27.8042 -79.7442 176° South 457 526 32,000 -300 Level Miami Center
Sat 07:01:14 PM 27.6789 -79.7386 178° South 457 526 31,400 -1,100 Descending Miami Center
Sat 07:02:14 PM 27.5433 -79.7306 177° South 446 513 29,800 -2,000 Descending Miami Center
Sat 07:03:14 PM 27.4244 -79.7208 176° South 440 506 27,400 -2,350 Descending Miami Center
Sat 07:04:14 PM 27.3036 -79.7178 179° South 435 501 25,100 -2,300 Descending Miami Center
Sat 07:05:14 PM 27.1950 -79.7103 176° South 440 506 22,800 -2,250 Descending Miami Center
Sat 07:06:14 PM 27.0783 -79.7028 177° South 435 501 20,600 -2,350 Descending Miami Center
Sat 07:07:14 PM 26.9572 -79.6953 177° South 409 471 18,100 -2,100 Descending Miami Center
Sat 07:08:14 PM 26.8486 -79.6903 178° South 395 455 16,400 -1,607 Descending Miami Center
Sat 07:09:06 PM 26.7589 -79.6881 179° South 355 409 15,100 -1,950 Descending Miami Center
Sat 07:10:14 PM 26.6600 -79.7253 199° South 346 398 12,500 -2,055 Descending Miami Center
Sat 07:11:32 PM 26.5442 -79.7828 204° Southwest 338 389 10,100 -1,683 Descending Miami Center
Sat 07:12:33 PM 26.4661 -79.8203 203° Southwest 286 329 8,600 -1,294 Descending Miami Center
Sat 07:13:14 PM 26.4197 -79.8422 203° Southwest 295 339 7,900 -772 Descending Miami Center
Sat 07:14:14 PM 26.3522 -79.8661 198° South 274 315 7,300 -1,350 Descending Miami Center
Sat 07:15:14 PM 26.2872 -79.8831 193° South 249 287 5,200 -1,650 Descending Miami Center
Sat 07:16:14 PM 26.2222 -79.8975 191° South 249 287 4,000 -1,000 Descending Miami Center
Sat 07:17:14 PM 26.1550 -79.9144 193° South 254 292 3,200 -933 Descending Miami Center
Sat 07:17:44 PM 26.1128 -79.9272 195° South 237 273 2,600 -1,000 Descending Miami Center
Sat 07:18:14 PM 26.0961 -79.9336 199° South 247 284 2,200 -259 Descending Miami Center
Sat 07:19:40 PM 26.0714 -80.0139 251° West 181 208 2,100 -367 Descending Miami Center
Sat 07:20:41 PM 26.0744 -80.0672 274° West 158 182 1,300 -744 Descending Miami Center
Sat 07:21:41 PM 26.0756 -80.1136 272° West 146 168 600 -700 Descending Miami Center
Sat 07:23:00 PM 26.0726 -80.1527 268° West  Level Estimated
Sat 07:30:00 PM 26.0726 -80.1527 90° East  Level Estimated

Login

Don't have an account? Register now (free) for customized features, flight alerts, and more!